createdAt,value
2019-02-22T00:01:17.915Z,30.98
2019-02-22T00:03:26.047Z,31.25
2019-02-22T00:05:33.109Z,31.51
2019-02-22T00:07:40.193Z,30.81
2019-02-22T00:09:49.658Z,30.21
2019-02-22T00:11:57.284Z,30.94
2019-02-22T00:14:04.897Z,30.58
2019-02-22T00:16:17.582Z,30.91
2019-02-22T00:18:36.369Z,29.63
2019-02-22T00:20:54.250Z,29.42
2019-02-22T00:23:18.818Z,29.45
2019-02-22T00:25:26.118Z,29.32
2019-02-22T00:27:33.345Z,29.02
2019-02-22T00:29:45.616Z,29.08
2019-02-22T00:31:52.850Z,28.84
2019-02-22T00:34:00.747Z,29.00
2019-02-22T00:36:08.256Z,29.13
2019-02-22T00:38:15.461Z,29.15
2019-02-22T00:40:22.924Z,29.34
2019-02-22T00:42:30.381Z,29.44
2019-02-22T00:44:38.093Z,29.50
2019-02-22T00:46:45.413Z,29.71
2019-02-22T00:48:52.688Z,29.61
2019-02-22T00:50:59.916Z,29.77
2019-02-22T00:53:07.871Z,29.83
2019-02-22T00:55:15.772Z,29.89
2019-02-22T00:57:23.000Z,30.00
2019-02-22T00:59:30.496Z,30.06
2019-02-22T01:01:58.914Z,30.26
2019-02-22T01:06:58.225Z,30.26
2019-02-22T01:09:14.695Z,30.45
2019-02-22T01:11:34.580Z,30.38
2019-02-22T01:13:48.359Z,30.37
2019-02-22T01:16:10.494Z,30.39
2019-02-22T01:22:04.095Z,30.49
2019-02-22T01:24:28.232Z,30.65
2019-02-22T01:29:14.291Z,30.51
2019-02-22T01:31:29.622Z,30.52
2019-02-22T01:33:45.566Z,30.37
2019-02-22T01:35:52.790Z,30.38
2019-02-22T01:38:00.888Z,30.45
2019-02-22T01:40:08.335Z,30.36
2019-02-22T01:42:34.970Z,30.26
2019-02-22T01:44:45.567Z,30.18
2019-02-22T01:46:53.075Z,30.26
2019-02-22T01:49:00.682Z,30.23
2019-02-22T01:51:08.117Z,30.24
2019-02-22T01:55:30.256Z,30.26
2019-02-22T01:57:37.297Z,30.31
2019-02-22T01:59:44.668Z,30.24
2019-02-22T02:01:52.287Z,30.36
2019-02-22T02:03:59.771Z,30.45
2019-02-22T02:06:06.820Z,30.43
2019-02-22T02:08:16.803Z,30.25
2019-02-22T02:10:32.250Z,30.42
2019-02-22T02:12:49.488Z,30.37
2019-02-22T02:14:56.597Z,30.08
2019-02-22T02:17:17.708Z,29.99
2019-02-22T02:19:37.432Z,30.16
2019-02-22T02:21:45.016Z,30.02
2019-02-22T02:23:52.514Z,30.08
2019-02-22T02:26:01.152Z,30.50
2019-02-22T02:28:08.956Z,30.22
2019-02-22T02:30:34.257Z,30.18
2019-02-22T02:33:26.633Z,30.11
2019-02-22T02:35:33.983Z,29.99
2019-02-22T02:37:48.883Z,30.01
2019-02-22T02:40:24.203Z,30.10
2019-02-22T02:42:57.432Z,30.22
2019-02-22T02:45:06.042Z,30.24
2019-02-22T02:47:34.015Z,30.38
2019-02-22T02:50:10.702Z,30.46
2019-02-22T02:52:18.486Z,30.47
2019-02-22T02:54:25.620Z,30.39
2019-02-22T02:56:55.849Z,30.38
2019-02-22T02:59:04.580Z,30.36
2019-02-22T03:01:12.551Z,30.31
2019-02-22T03:03:35.211Z,30.41
2019-02-22T03:06:00.274Z,30.34
2019-02-22T03:08:07.335Z,30.36
2019-02-22T03:10:14.585Z,30.41
2019-02-22T03:12:21.918Z,30.46
2019-02-22T03:14:29.758Z,30.44
2019-02-22T03:16:37.799Z,30.67
2019-02-22T03:18:44.977Z,30.45
2019-02-22T03:20:57.616Z,30.42
2019-02-22T03:23:11.932Z,30.41
2019-02-22T03:25:19.601Z,30.40
2019-02-22T03:27:44.645Z,30.36
2019-02-22T03:29:56.620Z,30.52
2019-02-22T03:32:07.225Z,30.51
2019-02-22T03:34:25.777Z,30.48
2019-02-22T03:36:36.411Z,30.38
2019-02-22T03:38:58.603Z,30.30
2019-02-22T03:41:07.285Z,30.54
2019-02-22T03:43:15.908Z,30.15
2019-02-22T03:45:23.384Z,29.99
2019-02-22T03:47:44.117Z,30.06
2019-02-22T03:49:59.911Z,29.37
2019-02-22T03:52:27.964Z,29.36
2019-02-22T03:54:35.134Z,29.64
2019-02-22T03:56:42.545Z,29.73
2019-02-22T03:58:50.923Z,29.79
2019-02-22T04:00:59.800Z,29.86
2019-02-22T04:03:07.101Z,29.93
2019-02-22T04:05:16.534Z,29.93
2019-02-22T04:07:24.507Z,30.14
2019-02-22T04:09:40.893Z,30.00
2019-02-22T04:11:56.563Z,30.05
2019-02-22T04:14:07.088Z,30.17
2019-02-22T04:16:27.919Z,30.23
2019-02-22T04:18:43.465Z,30.20
2019-02-22T04:20:51.368Z,30.20
2019-02-22T04:23:03.523Z,30.31
2019-02-22T04:25:10.818Z,30.30
2019-02-22T04:27:21.555Z,30.57
2019-02-22T04:29:36.859Z,30.52
2019-02-22T04:31:45.105Z,30.55
2019-02-22T04:33:57.436Z,30.38
2019-02-22T04:36:04.825Z,30.13
2019-02-22T04:38:14.419Z,30.01
2019-02-22T04:40:40.943Z,30.00
2019-02-22T04:43:16.811Z,29.73
2019-02-22T04:45:35.684Z,29.37
2019-02-22T04:47:57.661Z,29.56
2019-02-22T04:50:10.525Z,29.59
2019-02-22T04:52:30.193Z,29.69
2019-02-22T04:54:42.532Z,29.80
2019-02-22T04:57:08.068Z,30.08
2019-02-22T04:59:31.324Z,30.08
2019-02-22T05:01:44.918Z,30.13
2019-02-22T05:04:10.398Z,30.06
2019-02-22T05:06:21.726Z,30.20
2019-02-22T05:08:36.610Z,30.17
2019-02-22T05:10:46.425Z,30.16
2019-02-22T05:12:56.951Z,30.23
2019-02-22T05:15:12.650Z,30.21
2019-02-22T05:17:18.218Z,30.27
2019-02-22T05:19:37.691Z,30.60
2019-02-22T05:21:52.433Z,30.71
2019-02-22T05:24:06.829Z,30.64
2019-02-22T05:26:30.388Z,30.52
2019-02-22T05:28:42.006Z,30.28
2019-02-22T05:30:59.733Z,29.91
2019-02-22T05:33:20.296Z,29.84
2019-02-22T05:35:39.983Z,29.44
2019-02-22T05:37:54.399Z,29.37
2019-02-22T05:40:08.385Z,29.74
2019-02-22T05:42:46.612Z,29.80
2019-02-22T05:44:56.535Z,29.87
2019-02-22T05:47:45.965Z,30.03
2019-02-22T05:50:11.191Z,29.98
2019-02-22T05:51:39.015Z,29.96
2019-02-22T05:53:48.184Z,30.03
2019-02-22T05:58:47.277Z,30.27
2019-02-22T06:00:54.713Z,30.21
2019-02-22T06:03:32.215Z,30.19
2019-02-22T06:05:45.348Z,30.39
2019-02-22T06:08:04.282Z,30.47
2019-02-22T06:10:13.723Z,30.45
2019-02-22T06:12:34.284Z,30.72
2019-02-22T06:14:41.704Z,29.84
2019-02-22T06:16:58.298Z,29.62
2019-02-22T06:20:12.425Z,29.38
2019-02-22T06:21:18.799Z,29.41
2019-02-22T06:23:30.770Z,29.74
2019-02-22T06:25:38.073Z,29.45
2019-02-22T06:27:45.466Z,29.58
2019-02-22T06:29:52.867Z,29.90
2019-02-22T06:32:00.055Z,29.69
2019-02-22T06:34:08.152Z,29.99
2019-02-22T06:36:34.619Z,29.93
2019-02-22T06:38:50.166Z,30.16
2019-02-22T06:41:17.907Z,30.47
2019-02-22T06:44:50.446Z,30.37
2019-02-22T06:46:21.441Z,30.47
2019-02-22T06:48:39.765Z,30.59
2019-02-22T06:50:51.217Z,30.28
2019-02-22T06:53:01.779Z,30.66
2019-02-22T06:55:11.213Z,30.89
2019-02-22T06:57:22.863Z,30.57
2019-02-22T06:59:37.074Z,30.48
2019-02-22T07:01:50.940Z,30.11
2019-02-22T07:04:27.210Z,29.65
2019-02-22T07:06:42.622Z,29.83
2019-02-22T07:08:59.222Z,29.73
2019-02-22T07:11:15.451Z,30.15
2019-02-22T07:13:24.512Z,30.16
2019-02-22T07:15:31.971Z,30.11
2019-02-22T07:17:39.357Z,30.25
2019-02-22T07:19:46.875Z,30.36
2019-02-22T07:21:54.312Z,30.44
2019-02-22T07:24:02.774Z,30.37
2019-02-22T07:26:10.057Z,30.42
2019-02-22T07:28:17.351Z,30.49
2019-02-22T07:30:25.305Z,30.33
2019-02-22T07:32:32.530Z,30.68
2019-02-22T07:34:39.682Z,30.58
2019-02-22T07:36:48.249Z,30.41
2019-02-22T07:38:55.474Z,30.22
2019-02-22T07:41:03.445Z,29.95
2019-02-22T07:43:11.795Z,29.59
2019-02-22T07:45:19.525Z,29.92
2019-02-22T07:47:29.238Z,29.73
2019-02-22T07:49:35.907Z,29.80
2019-02-22T07:51:43.291Z,30.15
2019-02-22T07:53:50.525Z,30.22
2019-02-22T07:55:57.738Z,30.20
2019-02-22T07:58:05.074Z,30.28
2019-02-22T08:00:14.662Z,30.57
2019-02-22T08:02:22.873Z,30.53
2019-02-22T08:04:30.399Z,30.65
2019-02-22T08:06:37.698Z,30.75
2019-02-22T08:08:47.789Z,30.72
2019-02-22T08:10:54.381Z,30.76
2019-02-22T08:13:01.711Z,30.70
2019-02-22T08:15:10.177Z,30.89
2019-02-22T08:17:17.400Z,30.78
2019-02-22T08:19:24.710Z,30.92
2019-02-22T08:21:32.662Z,30.88
2019-02-22T08:23:39.978Z,31.12
2019-02-22T08:25:46.987Z,30.65
2019-02-22T08:27:55.085Z,30.36
2019-02-22T08:30:02.893Z,30.26
2019-02-22T08:32:10.137Z,30.12
2019-02-22T08:34:17.363Z,30.09
2019-02-22T08:36:24.731Z,30.24
2019-02-22T08:38:32.749Z,30.41
2019-02-22T08:40:39.917Z,30.40
2019-02-22T08:42:48.079Z,30.42
2019-02-22T08:44:55.409Z,30.52
2019-02-22T08:47:02.713Z,30.49
2019-02-22T08:49:09.983Z,30.47
2019-02-22T08:51:17.313Z,30.59
2019-02-22T08:53:24.523Z,30.81
2019-02-22T08:55:31.702Z,30.71
2019-02-22T08:57:38.750Z,30.39
2019-02-22T08:59:45.785Z,29.89
2019-02-22T09:01:53.168Z,29.86
2019-02-22T09:04:00.455Z,29.72
2019-02-22T09:06:07.848Z,29.95
2019-02-22T09:08:16.335Z,30.03
2019-02-22T09:10:23.560Z,30.15
2019-02-22T09:12:31.153Z,30.26
2019-02-22T09:14:38.938Z,30.27
2019-02-22T09:16:46.325Z,30.44
2019-02-22T09:18:54.409Z,30.38
2019-02-22T09:21:01.620Z,30.47
2019-02-22T09:23:09.383Z,30.51
2019-02-22T09:25:17.056Z,30.66
2019-02-22T09:27:24.159Z,30.61
2019-02-22T09:29:31.494Z,30.51
2019-02-22T09:31:38.823Z,30.64
2019-02-22T09:33:45.862Z,30.94
2019-02-22T09:35:53.235Z,30.74
2019-02-22T09:38:00.456Z,30.52
2019-02-22T09:40:08.169Z,30.35
2019-02-22T09:42:15.332Z,30.06
2019-02-22T09:44:22.570Z,30.00
2019-02-22T09:46:29.984Z,29.80
2019-02-22T09:48:38.275Z,29.65
2019-02-22T09:50:45.492Z,29.98
2019-02-22T09:52:53.352Z,29.99
2019-02-22T09:55:00.631Z,29.98
2019-02-22T09:57:09.255Z,30.06
2019-02-22T09:59:16.584Z,30.35
2019-02-22T10:01:23.923Z,30.44
2019-02-22T10:03:31.114Z,30.37
2019-02-22T10:05:39.391Z,30.56
2019-02-22T10:07:46.467Z,30.66
2019-02-22T10:09:53.752Z,30.60
2019-02-22T10:12:01.043Z,30.64
2019-02-22T10:14:09.076Z,30.70
2019-02-22T10:16:16.451Z,30.56
2019-02-22T10:18:23.664Z,30.76
2019-02-22T10:20:30.932Z,30.74
2019-02-22T10:22:39.139Z,30.63
2019-02-22T10:24:46.243Z,30.71
2019-02-22T10:26:53.521Z,30.62
2019-02-22T10:29:00.875Z,30.96
2019-02-22T10:31:08.273Z,30.96
2019-02-22T10:33:15.762Z,30.81
2019-02-22T10:35:23.241Z,30.46
2019-02-22T10:37:30.362Z,30.32
2019-02-22T10:39:37.641Z,30.25
2019-02-22T10:41:44.940Z,30.18
2019-02-22T10:43:52.183Z,29.89
2019-02-22T10:45:59.470Z,29.70
2019-02-22T10:48:06.684Z,29.61
2019-02-22T10:50:15.666Z,29.94
2019-02-22T10:52:22.735Z,30.10
2019-02-22T10:54:33.065Z,29.95
2019-02-22T10:56:39.734Z,29.88
2019-02-22T10:58:47.028Z,30.51
2019-02-22T11:00:54.179Z,30.51
2019-02-22T11:03:01.989Z,30.57
2019-02-22T11:05:09.175Z,30.53
2019-02-22T11:07:16.539Z,30.51
2019-02-22T11:09:23.848Z,30.71
2019-02-22T11:11:31.001Z,30.47
2019-02-22T11:13:38.905Z,30.70
2019-02-22T11:15:47.149Z,30.74
2019-02-22T11:17:54.391Z,30.84
2019-02-22T11:20:01.335Z,30.75
2019-02-22T11:22:09.247Z,30.79
2019-02-22T11:24:17.165Z,30.58
2019-02-22T11:26:24.344Z,30.72
2019-02-22T11:28:31.804Z,30.91
2019-02-22T11:30:40.062Z,31.09
2019-02-22T11:32:47.379Z,30.99
2019-02-22T11:34:55.411Z,30.84
2019-02-22T11:37:03.280Z,30.58
2019-02-22T11:39:10.899Z,30.44
2019-02-22T11:41:18.034Z,30.32
2019-02-22T11:43:25.979Z,30.29
2019-02-22T11:45:33.189Z,30.23
2019-02-22T11:47:41.444Z,30.17
2019-02-22T11:49:48.552Z,30.21
2019-02-22T11:51:57.247Z,30.22
2019-02-22T11:54:04.531Z,30.18
2019-02-22T11:56:11.658Z,30.22
2019-02-22T11:58:19.660Z,30.47
2019-02-22T12:00:27.710Z,30.53
2019-02-22T12:02:35.024Z,30.78
2019-02-22T12:04:42.427Z,30.67
2019-02-22T12:06:49.700Z,30.83
2019-02-22T12:08:57.166Z,30.77
2019-02-22T12:11:04.387Z,30.70
2019-02-22T12:13:11.602Z,30.75
2019-02-22T12:15:18.968Z,30.86
2019-02-22T12:17:26.753Z,30.68
2019-02-22T12:19:34.023Z,30.66
2019-02-22T12:21:41.239Z,30.77
2019-02-22T12:23:49.381Z,30.90
2019-02-22T12:25:56.600Z,30.97
2019-02-22T12:28:03.987Z,30.77
2019-02-22T12:30:13.360Z,30.60
2019-02-22T12:32:20.769Z,30.61
2019-02-22T12:34:27.850Z,30.74
2019-02-22T12:36:35.130Z,30.59
2019-02-22T12:38:42.520Z,30.49
2019-02-22T12:40:49.443Z,30.34
2019-02-22T12:42:56.912Z,30.25
2019-02-22T12:45:04.075Z,30.19
2019-02-22T12:47:11.304Z,30.17
2019-02-22T12:49:18.477Z,30.09
2019-02-22T12:51:25.996Z,30.03
2019-02-22T12:53:33.339Z,29.92
2019-02-22T12:55:40.705Z,29.85
2019-02-22T12:57:47.960Z,30.01
2019-02-22T12:59:55.435Z,29.89
2019-02-22T13:02:02.569Z,29.65
2019-02-22T13:04:10.070Z,29.45
2019-02-22T13:06:17.566Z,29.29
2019-02-22T13:08:24.740Z,29.23
2019-02-22T13:10:32.055Z,29.04
2019-02-22T13:12:39.226Z,29.02
2019-02-22T13:14:46.538Z,29.07
2019-02-22T13:16:53.805Z,29.06
2019-02-22T13:19:01.521Z,29.11
2019-02-22T13:21:08.879Z,29.92
2019-02-22T13:23:16.205Z,30.25
2019-02-22T13:25:23.352Z,30.13
2019-02-22T13:27:30.800Z,30.44
2019-02-22T13:29:37.969Z,30.29
2019-02-22T13:31:45.331Z,30.53
2019-02-22T13:33:52.507Z,30.36
2019-02-22T13:36:00.855Z,30.82
2019-02-22T13:38:09.683Z,30.58
2019-02-22T13:40:17.199Z,30.53
2019-02-22T13:42:24.693Z,30.37
2019-02-22T13:44:39.751Z,30.48
2019-02-22T13:46:47.119Z,30.32
2019-02-22T13:48:54.432Z,30.17
2019-02-22T13:51:01.963Z,30.09
2019-02-22T13:53:09.345Z,30.22
2019-02-22T13:55:16.716Z,30.58
2019-02-22T13:57:23.793Z,30.48
2019-02-22T13:59:31.299Z,30.36
2019-02-22T14:01:38.276Z,32.30
2019-02-22T14:03:46.016Z,30.71
2019-02-22T14:05:53.561Z,30.54
2019-02-22T14:08:01.637Z,30.98
2019-02-22T14:10:09.151Z,30.88
2019-02-22T14:13:42.538Z,30.65
2019-02-22T14:14:42.671Z,30.85
2019-02-22T14:17:27.244Z,30.67
2019-02-22T14:19:45.644Z,31.27
2019-02-22T14:22:06.955Z,30.51
2019-02-22T14:24:30.406Z,30.84
2019-02-22T14:26:43.663Z,30.76
2019-02-22T14:29:02.571Z,30.88
2019-02-22T14:31:18.271Z,30.46
2019-02-22T14:33:34.385Z,30.80
2019-02-22T14:35:41.448Z,30.66
2019-02-22T14:38:05.659Z,30.83
2019-02-22T14:40:28.015Z,30.54
2019-02-22T14:42:51.094Z,30.82
2019-02-22T14:45:01.158Z,30.71
2019-02-22T14:47:21.484Z,30.71
2019-02-22T14:49:56.633Z,30.82
2019-02-22T14:52:18.103Z,30.38
2019-02-22T14:54:35.627Z,31.83
2019-02-22T14:59:05.389Z,30.37
2019-02-22T15:01:13.092Z,29.04
2019-02-22T15:03:31.150Z,30.30
2019-02-22T15:06:13.350Z,30.34
2019-02-22T15:08:25.331Z,29.94
2019-02-22T15:10:45.568Z,29.42
2019-02-22T15:13:01.833Z,29.67
2019-02-22T15:15:10.218Z,30.34
2019-02-22T15:17:39.389Z,29.44
2019-02-22T15:19:46.649Z,29.41
2019-02-22T15:21:54.775Z,29.57
2019-02-22T15:24:17.531Z,29.54
2019-02-22T15:26:23.272Z,29.52
2019-02-22T15:28:30.472Z,29.61
2019-02-22T15:30:41.581Z,30.28
2019-02-22T15:32:49.391Z,30.60
2019-02-22T15:34:56.709Z,30.10
2019-02-22T15:37:11.719Z,29.97
2019-02-22T15:39:30.356Z,29.20
2019-02-22T15:41:37.454Z,29.64
2019-02-22T15:43:44.790Z,29.49
2019-02-22T15:45:52.418Z,29.22
2019-02-22T15:47:59.640Z,29.14
2019-02-22T15:50:07.230Z,29.04
2019-02-22T15:52:14.455Z,28.71
2019-02-22T15:54:21.824Z,29.04
2019-02-22T15:56:35.400Z,29.20
2019-02-22T15:58:43.435Z,29.13
2019-02-22T16:00:50.945Z,29.01
2019-02-22T16:02:58.481Z,28.94
2019-02-22T16:05:15.921Z,29.06
2019-02-22T16:07:54.903Z,29.00
2019-02-22T16:09:59.957Z,29.10
2019-02-22T16:12:07.177Z,29.13
2019-02-22T16:14:14.582Z,29.19
2019-02-22T16:16:23.523Z,29.17
2019-02-22T16:18:31.503Z,29.16
2019-02-22T16:20:38.856Z,29.18
2019-02-22T16:22:46.771Z,29.12
2019-02-22T16:24:54.052Z,29.14
2019-02-22T16:27:04.565Z,29.06
2019-02-22T16:29:11.992Z,29.11
2019-02-22T16:31:20.210Z,29.03
2019-02-22T16:33:27.467Z,30.10
2019-02-22T16:35:34.913Z,29.31
2019-02-22T16:37:42.304Z,28.84
2019-02-22T16:39:55.619Z,28.57
2019-02-22T16:42:16.495Z,28.53
2019-02-22T16:44:24.121Z,28.29
2019-02-22T16:46:35.062Z,28.40
2019-02-22T16:48:41.320Z,28.56
2019-02-22T16:50:48.585Z,28.63
2019-02-22T16:52:56.252Z,28.59
2019-02-22T16:55:03.643Z,28.40
2019-02-22T16:57:10.983Z,28.42
2019-02-22T16:59:18.265Z,28.54
2019-02-22T17:01:25.996Z,28.56
2019-02-22T17:03:33.808Z,28.72
2019-02-22T17:05:41.328Z,28.77
2019-02-22T17:07:48.712Z,28.78
2019-02-22T17:09:55.807Z,28.81
2019-02-22T17:12:06.372Z,28.88
2019-02-22T17:14:30.690Z,28.87
2019-02-22T17:16:45.577Z,28.81
2019-02-22T17:18:48.410Z,28.82
2019-02-22T17:20:55.435Z,28.79
2019-02-22T17:23:02.619Z,28.77
2019-02-22T17:25:11.576Z,28.78
2019-02-22T17:27:18.849Z,28.79
2019-02-22T17:29:26.513Z,28.66
2019-02-22T17:31:33.756Z,28.75
2019-02-22T17:33:41.525Z,28.79
2019-02-22T17:35:48.787Z,28.73
2019-02-22T17:37:56.191Z,28.73
2019-02-22T17:40:03.475Z,28.68
2019-02-22T17:42:10.920Z,28.70
2019-02-22T17:44:19.781Z,28.76
2019-02-22T17:46:27.089Z,28.71
2019-02-22T17:48:35.182Z,28.67
2019-02-22T17:50:57.053Z,28.71
2019-02-22T17:55:29.591Z,28.80
2019-02-22T17:57:36.921Z,28.82
2019-02-22T17:59:48.587Z,28.83
2019-02-22T18:01:56.993Z,28.82
2019-02-22T18:04:05.281Z,28.87
2019-02-22T18:06:12.564Z,28.86
2019-02-22T18:08:20.025Z,28.83
2019-02-22T18:10:27.136Z,28.79
2019-02-22T18:12:34.292Z,28.76
2019-02-22T18:14:41.534Z,28.69
2019-02-22T18:16:48.771Z,28.64
2019-02-22T18:18:55.922Z,28.62
2019-02-22T18:21:03.512Z,28.59
2019-02-22T18:23:10.822Z,28.58
2019-02-22T18:25:18.585Z,28.52
2019-02-22T18:27:26.163Z,28.52
2019-02-22T18:29:35.684Z,28.54
2019-02-22T18:31:44.384Z,28.68
2019-02-22T18:33:51.881Z,27.98
2019-02-22T18:35:59.499Z,29.65
2019-02-22T18:38:06.844Z,28.63
2019-02-22T18:40:15.237Z,28.15
2019-02-22T18:42:22.626Z,27.81
2019-02-22T18:44:30.080Z,28.06
2019-02-22T18:46:37.409Z,27.94
2019-02-22T18:48:44.445Z,27.78
2019-02-22T18:50:51.761Z,27.79
2019-02-22T18:52:59.568Z,27.90
2019-02-22T18:55:07.731Z,28.02
2019-02-22T18:57:14.988Z,28.18
2019-02-22T18:59:22.271Z,28.47
2019-02-22T19:01:29.540Z,28.55
2019-02-22T19:03:37.071Z,28.70
2019-02-22T19:05:44.246Z,28.76
2019-02-22T19:07:51.468Z,28.75
2019-02-22T19:09:58.946Z,28.77
2019-02-22T19:12:06.429Z,28.71
2019-02-22T19:14:13.921Z,28.85
2019-02-22T19:16:20.836Z,28.87
2019-02-22T19:18:30.300Z,29.08
2019-02-22T19:20:37.505Z,29.07
2019-02-22T19:22:44.789Z,28.86
2019-02-22T19:24:52.453Z,28.89
2019-02-22T19:27:00.054Z,29.22
2019-02-22T19:29:07.793Z,29.29
2019-02-22T19:31:15.336Z,29.40
2019-02-22T19:33:22.457Z,29.14
2019-02-22T19:35:29.736Z,29.17
2019-02-22T19:37:41.780Z,29.29
2019-02-22T19:39:49.602Z,29.19
2019-02-22T19:41:56.792Z,29.05
2019-02-22T19:44:04.142Z,29.18
2019-02-22T19:46:12.067Z,29.11
2019-02-22T19:48:19.289Z,29.19
2019-02-22T19:50:27.860Z,29.22
2019-02-22T19:52:35.178Z,29.16
2019-02-22T19:54:44.759Z,29.25
2019-02-22T19:56:51.128Z,29.33
2019-02-22T19:58:59.194Z,29.39
2019-02-22T20:01:06.812Z,29.37
2019-02-22T20:03:14.143Z,29.42
2019-02-22T20:05:21.299Z,29.35
2019-02-22T20:07:29.007Z,29.44
2019-02-22T20:09:36.329Z,29.30
2019-02-22T20:11:43.453Z,29.26
2019-02-22T20:13:51.153Z,29.20
2019-02-22T20:15:58.378Z,29.19
2019-02-22T20:18:08.257Z,29.22
2019-02-22T20:20:16.493Z,29.24
2019-02-22T20:22:24.808Z,29.87
2019-02-22T20:24:32.025Z,29.70
2019-02-22T20:26:39.174Z,29.36
2019-02-22T20:28:46.557Z,28.83
2019-02-22T20:30:53.872Z,28.36
2019-02-22T20:33:01.140Z,28.23
2019-02-22T20:35:09.755Z,28.36
2019-02-22T20:37:17.131Z,28.53
2019-02-22T20:39:25.971Z,28.23
2019-02-22T20:41:33.097Z,28.16
2019-02-22T20:43:40.324Z,28.50
2019-02-22T20:45:48.089Z,28.32
2019-02-22T20:48:04.806Z,28.39
2019-02-22T20:50:07.794Z,28.46
2019-02-22T20:52:15.277Z,28.61
2019-02-22T20:54:30.032Z,28.67
2019-02-22T20:56:37.347Z,28.65
2019-02-22T20:59:01.014Z,28.75
2019-02-22T21:01:14.862Z,28.80
2019-02-22T21:03:21.063Z,28.85
2019-02-22T21:05:28.816Z,28.92
2019-02-22T21:10:19.411Z,29.00
2019-02-22T21:12:30.868Z,29.13
2019-02-22T21:14:39.983Z,29.19
2019-02-22T21:17:14.593Z,29.24
2019-02-22T21:19:22.107Z,29.34
2019-02-22T21:21:33.198Z,29.33
2019-02-22T21:23:57.308Z,29.28
2019-02-22T21:26:24.659Z,29.26
2019-02-22T21:28:48.579Z,29.24
2019-02-22T21:30:56.153Z,29.28
2019-02-22T21:33:03.406Z,29.31
2019-02-22T21:35:10.531Z,29.27
2019-02-22T21:37:31.083Z,29.35
2019-02-22T21:39:45.604Z,29.44
2019-02-22T21:42:39.072Z,29.52
2019-02-22T21:44:51.384Z,29.61
2019-02-22T21:46:58.618Z,29.85
2019-02-22T21:49:05.654Z,30.11
2019-02-22T21:51:14.740Z,29.97
2019-02-22T21:53:28.516Z,31.25
2019-02-22T21:55:36.405Z,29.39
2019-02-22T22:00:20.400Z,28.78
2019-02-22T22:02:32.729Z,28.98
2019-02-22T22:04:51.760Z,28.79
2019-02-22T22:07:05.467Z,29.37
2019-02-22T22:09:53.442Z,29.10
2019-02-22T22:11:37.825Z,29.18
2019-02-22T22:13:49.880Z,29.35
2019-02-22T22:16:06.304Z,29.49
2019-02-22T22:18:14.681Z,29.43
2019-02-22T22:20:46.228Z,29.61
2019-02-22T22:22:58.765Z,29.73
2019-02-22T22:25:06.042Z,29.72
2019-02-22T22:27:18.462Z,29.87
2019-02-22T22:29:37.764Z,29.85
2019-02-22T22:31:45.053Z,29.98
2019-02-22T22:34:17.500Z,30.03
2019-02-22T22:36:39.300Z,30.08
2019-02-22T22:38:54.887Z,30.47
2019-02-22T22:41:02.138Z,30.28
2019-02-22T22:43:13.002Z,30.27
2019-02-22T22:45:20.228Z,30.40
2019-02-22T22:47:43.538Z,30.40
2019-02-22T22:50:03.246Z,30.50
2019-02-22T22:52:25.498Z,30.49
2019-02-22T22:54:51.087Z,30.56
2019-02-22T22:57:07.365Z,30.50
2019-02-22T22:59:41.853Z,30.67
2019-02-22T23:01:47.187Z,30.51
2019-02-22T23:03:54.732Z,30.47
2019-02-22T23:06:02.242Z,31.50
2019-02-22T23:08:46.794Z,30.83
2019-02-22T23:11:11.799Z,30.45
2019-02-22T23:13:19.510Z,29.73
2019-02-22T23:15:27.037Z,29.85
2019-02-22T23:17:43.389Z,29.93
2019-02-22T23:19:55.158Z,29.44
2019-02-22T23:22:02.421Z,29.49
2019-02-22T23:24:10.524Z,29.68
2019-02-22T23:26:17.753Z,29.57
2019-02-22T23:28:25.108Z,30.00
2019-02-22T23:30:32.951Z,29.93
2019-02-22T23:32:40.874Z,30.01
2019-02-22T23:34:53.700Z,30.14
2019-02-22T23:37:01.683Z,30.35
2019-02-22T23:39:09.969Z,30.72
2019-02-22T23:41:18.521Z,30.44
2019-02-22T23:43:26.546Z,30.75
2019-02-22T23:45:33.931Z,30.66
2019-02-22T23:47:50.205Z,30.69
2019-02-22T23:50:09.326Z,30.77
2019-02-22T23:52:24.784Z,30.70
2019-02-22T23:54:54.206Z,30.74
2019-02-22T23:57:17.400Z,30.70
2019-02-22T23:59:27.828Z,30.76
